createdAt,value
2022-11-21T00:00:34.834Z,970.45
2022-11-21T00:01:34.941Z,970.45
2022-11-21T00:02:34.813Z,970.43
2022-11-21T00:03:34.799Z,970.36
2022-11-21T00:04:34.786Z,970.36
2022-11-21T00:05:34.766Z,970.34
2022-11-21T00:06:34.751Z,970.30
2022-11-21T00:07:34.794Z,970.28
2022-11-21T00:08:34.733Z,970.25
2022-11-21T00:09:34.718Z,970.22
2022-11-21T00:10:34.707Z,970.19
2022-11-21T00:11:34.691Z,970.28
2022-11-21T00:12:34.676Z,970.29
2022-11-21T00:13:34.663Z,970.29
2022-11-21T00:14:34.653Z,970.26
2022-11-21T00:15:34.637Z,970.19
2022-11-21T00:16:34.622Z,970.25
2022-11-21T00:17:34.602Z,970.25
2022-11-21T00:18:34.596Z,970.20
2022-11-21T00:19:34.582Z,970.21
2022-11-21T00:20:34.569Z,970.22
2022-11-21T00:21:34.553Z,970.22
2022-11-21T00:22:34.545Z,970.24
2022-11-21T00:23:34.539Z,970.24
2022-11-21T00:24:34.513Z,970.22
2022-11-21T00:25:34.499Z,970.18
2022-11-21T00:26:34.480Z,970.17
2022-11-21T00:27:34.467Z,970.14
2022-11-21T00:28:34.457Z,970.13
2022-11-21T00:29:34.440Z,970.01
2022-11-21T00:30:34.431Z,969.97
2022-11-21T00:31:34.422Z,969.94
2022-11-21T00:32:34.411Z,969.96
2022-11-21T00:33:34.395Z,969.96
2022-11-21T00:34:34.380Z,969.89
2022-11-21T00:35:34.368Z,969.76
2022-11-21T00:36:34.351Z,969.76
2022-11-21T00:37:34.335Z,969.77
2022-11-21T00:38:34.329Z,969.74
2022-11-21T00:39:34.305Z,969.66
2022-11-21T00:40:34.295Z,969.72
2022-11-21T00:41:34.283Z,969.66
2022-11-21T00:42:34.267Z,969.60
2022-11-21T00:43:34.259Z,969.57
2022-11-21T00:44:34.241Z,969.47
2022-11-21T00:45:34.275Z,969.50
2022-11-21T00:46:34.217Z,969.46
2022-11-21T00:47:34.208Z,969.37
2022-11-21T00:48:34.192Z,969.40
2022-11-21T00:49:34.174Z,969.32
2022-11-21T00:50:34.161Z,969.41
2022-11-21T00:51:34.142Z,969.46
2022-11-21T00:52:34.134Z,969.51
2022-11-21T00:53:34.171Z,969.59
2022-11-21T00:54:34.111Z,969.55
2022-11-21T00:55:34.097Z,969.52
2022-11-21T00:56:34.087Z,969.55
2022-11-21T00:57:34.070Z,969.56
2022-11-21T00:58:34.054Z,969.54
2022-11-21T00:59:34.041Z,969.60
2022-11-21T01:00:34.101Z,969.63
2022-11-21T01:01:34.016Z,969.60
2022-11-21T01:02:34.006Z,969.54
2022-11-21T01:03:33.981Z,969.52
2022-11-21T01:04:33.977Z,969.54
2022-11-21T01:05:33.954Z,969.59
2022-11-21T01:06:33.947Z,969.59
2022-11-21T01:07:33.971Z,969.72
2022-11-21T01:08:33.917Z,969.72
2022-11-21T01:09:33.902Z,969.76
2022-11-21T01:10:33.888Z,969.76
2022-11-21T01:11:33.879Z,969.77
2022-11-21T01:12:33.888Z,969.70
2022-11-21T01:13:33.849Z,969.71
2022-11-21T01:14:33.839Z,969.75
2022-11-21T01:15:33.829Z,969.71
2022-11-21T01:16:33.814Z,969.69
2022-11-21T01:17:33.799Z,969.62
2022-11-21T01:18:33.787Z,969.61
2022-11-21T01:19:33.773Z,969.57
2022-11-21T01:20:33.755Z,969.60
2022-11-21T01:21:33.742Z,969.58
2022-11-21T01:22:33.730Z,969.55
2022-11-21T01:23:33.715Z,969.51
2022-11-21T01:24:33.705Z,969.53
2022-11-21T01:25:33.688Z,969.44
2022-11-21T01:26:33.677Z,969.34
2022-11-21T01:27:33.660Z,969.39
2022-11-21T01:28:33.669Z,969.33
2022-11-21T01:29:33.636Z,969.45
2022-11-21T01:30:33.620Z,969.43
2022-11-21T01:31:33.604Z,969.37
2022-11-21T01:32:33.591Z,969.45
2022-11-21T01:33:33.582Z,969.38
2022-11-21T01:34:33.563Z,969.35
2022-11-21T01:35:33.558Z,969.42
2022-11-21T01:36:33.540Z,969.36
2022-11-21T01:37:33.533Z,969.35
2022-11-21T01:38:33.522Z,969.28
2022-11-21T01:39:33.503Z,969.30
2022-11-21T01:40:33.488Z,969.32
2022-11-21T01:41:33.484Z,969.29
2022-11-21T01:42:33.460Z,969.27
2022-11-21T01:43:33.444Z,969.22
2022-11-21T01:44:33.461Z,969.28
2022-11-21T01:45:33.417Z,969.24
2022-11-21T01:46:33.409Z,969.28
2022-11-21T01:47:33.393Z,969.30
2022-11-21T01:48:33.380Z,969.25
2022-11-21T01:49:33.363Z,969.19
2022-11-21T01:50:33.350Z,969.27
2022-11-21T01:51:33.338Z,969.22
2022-11-21T01:52:33.331Z,969.21
2022-11-21T01:53:33.312Z,969.18
2022-11-21T01:54:33.300Z,969.17
2022-11-21T01:55:33.281Z,969.15
2022-11-21T01:56:33.267Z,969.11
2022-11-21T01:57:33.250Z,969.15
2022-11-21T01:58:33.245Z,969.15
2022-11-21T01:59:33.232Z,969.17
2022-11-21T02:00:33.245Z,969.13
2022-11-21T02:01:33.208Z,969.16
2022-11-21T02:02:33.190Z,969.15
2022-11-21T02:03:33.178Z,969.09
2022-11-21T02:04:33.163Z,969.12
2022-11-21T02:05:33.149Z,969.13
2022-11-21T02:06:33.140Z,969.15
2022-11-21T02:07:33.163Z,969.05
2022-11-21T02:08:33.106Z,969.16
2022-11-21T02:09:33.093Z,969.19
2022-11-21T02:10:33.079Z,969.15
2022-11-21T02:11:33.067Z,969.17
2022-11-21T02:12:33.058Z,969.15
2022-11-21T02:13:33.039Z,969.17
2022-11-21T02:14:33.028Z,969.19
2022-11-21T02:15:33.015Z,969.21
2022-11-21T02:16:33.022Z,969.09
2022-11-21T02:17:32.989Z,969.18
2022-11-21T02:18:32.980Z,969.15
2022-11-21T02:19:32.957Z,969.06
2022-11-21T02:20:32.951Z,969.00
2022-11-21T02:21:32.935Z,968.96
2022-11-21T02:22:32.921Z,968.95
2022-11-21T02:23:32.906Z,968.92
2022-11-21T02:24:32.891Z,968.97
2022-11-21T02:25:32.901Z,968.97
2022-11-21T02:26:32.864Z,969.00
2022-11-21T02:27:32.850Z,969.01
2022-11-21T02:28:32.843Z,969.04
2022-11-21T02:29:32.825Z,969.05
2022-11-21T02:30:32.823Z,969.03
2022-11-21T02:31:32.792Z,969.00
2022-11-21T02:32:32.802Z,969.03
2022-11-21T02:33:32.765Z,969.00
2022-11-21T02:34:32.799Z,968.95
2022-11-21T02:35:32.738Z,969.03
2022-11-21T02:36:32.732Z,968.99
2022-11-21T02:37:32.712Z,969.07
2022-11-21T02:38:32.699Z,968.99
2022-11-21T02:39:32.686Z,968.98
2022-11-21T02:40:32.679Z,968.95
2022-11-21T02:41:32.662Z,968.94
2022-11-21T02:42:32.647Z,968.91
2022-11-21T02:43:32.643Z,968.96
2022-11-21T02:44:32.619Z,968.98
2022-11-21T02:45:32.609Z,968.93
2022-11-21T02:46:32.598Z,968.87
2022-11-21T02:47:32.579Z,968.92
2022-11-21T02:48:32.584Z,968.93
2022-11-21T02:49:32.549Z,968.92
2022-11-21T02:50:32.538Z,968.82
2022-11-21T02:51:32.524Z,968.88
2022-11-21T02:52:32.510Z,968.89
2022-11-21T02:53:32.494Z,968.83
2022-11-21T02:54:32.485Z,968.84
2022-11-21T02:55:32.469Z,968.85
2022-11-21T02:56:32.459Z,968.82
2022-11-21T02:57:32.446Z,968.78
2022-11-21T02:58:32.439Z,968.73
2022-11-21T02:59:32.411Z,968.75
2022-11-21T03:00:32.402Z,968.64
2022-11-21T03:01:32.417Z,968.65
2022-11-21T03:02:32.375Z,968.64
2022-11-21T03:03:32.512Z,968.63
2022-11-21T03:04:32.377Z,968.63
2022-11-21T03:05:32.338Z,968.64
2022-11-21T03:06:32.323Z,968.64
2022-11-21T03:07:32.388Z,968.66
2022-11-21T03:08:32.296Z,968.60
2022-11-21T03:09:32.284Z,968.59
2022-11-21T03:10:32.271Z,968.65
2022-11-21T03:11:32.253Z,968.70
2022-11-21T03:12:32.241Z,968.72
2022-11-21T03:13:32.221Z,968.66
2022-11-21T03:14:32.211Z,968.79
2022-11-21T03:15:32.198Z,968.72
2022-11-21T03:16:32.182Z,968.70
2022-11-21T03:17:32.171Z,968.75
2022-11-21T03:18:32.163Z,968.77
2022-11-21T03:19:32.146Z,968.78
2022-11-21T03:20:32.154Z,968.82
2022-11-21T03:21:32.122Z,968.85
2022-11-21T03:22:34.155Z,968.79
2022-11-21T03:23:32.089Z,968.74
2022-11-21T03:24:32.078Z,968.71
2022-11-21T03:25:32.066Z,968.71
2022-11-21T03:26:32.054Z,968.73
2022-11-21T03:27:32.039Z,968.71
2022-11-21T03:28:32.026Z,968.64
2022-11-21T03:29:32.014Z,968.70
2022-11-21T03:30:31.995Z,968.69
2022-11-21T03:31:31.984Z,968.68
2022-11-21T03:32:31.974Z,968.67
2022-11-21T03:33:31.964Z,968.73
2022-11-21T03:34:31.946Z,968.59
2022-11-21T03:35:31.929Z,968.61
2022-11-21T03:36:31.937Z,968.64
2022-11-21T03:37:31.903Z,968.52
2022-11-21T03:38:31.894Z,968.59
2022-11-21T03:39:31.873Z,968.57
2022-11-21T03:40:31.859Z,968.54
2022-11-21T03:41:31.845Z,968.50
2022-11-21T03:42:31.833Z,968.46
2022-11-21T03:43:31.825Z,968.47
2022-11-21T03:44:31.805Z,968.48
2022-11-21T03:45:31.793Z,968.47
2022-11-21T03:46:31.779Z,968.46
2022-11-21T03:47:31.769Z,968.52
2022-11-21T03:48:31.753Z,968.45
2022-11-21T03:49:31.742Z,968.46
2022-11-21T03:50:31.724Z,968.50
2022-11-21T03:51:31.707Z,968.52
2022-11-21T03:52:31.718Z,968.44
2022-11-21T03:53:31.687Z,968.44
2022-11-21T03:54:31.669Z,968.45
2022-11-21T03:55:31.653Z,968.45
2022-11-21T03:56:31.641Z,968.53
2022-11-21T03:57:31.626Z,968.58
2022-11-21T03:58:31.619Z,968.48
2022-11-21T03:59:31.610Z,968.56
2022-11-21T04:00:31.589Z,968.54
2022-11-21T04:01:36.372Z,968.56
2022-11-21T04:02:31.559Z,968.56
2022-11-21T04:03:31.550Z,968.56
2022-11-21T04:04:31.529Z,968.43
2022-11-21T04:05:31.525Z,968.52
2022-11-21T04:06:31.510Z,968.60
2022-11-21T04:07:31.597Z,968.55
2022-11-21T04:08:31.507Z,968.55
2022-11-21T04:09:31.476Z,968.50
2022-11-21T04:10:31.451Z,968.52
2022-11-21T04:11:31.447Z,968.52
2022-11-21T04:12:31.428Z,968.48
2022-11-21T04:13:31.415Z,968.51
2022-11-21T04:14:31.397Z,968.53
2022-11-21T04:15:31.390Z,968.59
2022-11-21T04:16:31.369Z,968.57
2022-11-21T04:17:31.360Z,968.61
2022-11-21T04:18:31.348Z,968.57
2022-11-21T04:19:31.337Z,968.58
2022-11-21T04:20:31.320Z,968.52
2022-11-21T04:21:31.305Z,968.52
2022-11-21T04:22:31.301Z,968.44
2022-11-21T04:23:31.284Z,968.50
2022-11-21T04:24:31.443Z,968.45
2022-11-21T04:25:31.257Z,968.50
2022-11-21T04:26:31.238Z,968.39
2022-11-21T04:27:31.238Z,968.48
2022-11-21T04:28:31.218Z,968.36
2022-11-21T04:29:31.204Z,968.28
2022-11-21T04:30:31.186Z,968.42
2022-11-21T04:31:31.175Z,968.42
2022-11-21T04:32:31.155Z,968.47
2022-11-21T04:33:31.143Z,968.48
2022-11-21T04:34:31.261Z,968.54
2022-11-21T04:35:31.117Z,968.51
2022-11-21T04:36:31.214Z,968.47
2022-11-21T04:37:31.091Z,968.52
2022-11-21T04:38:31.084Z,968.59
2022-11-21T04:39:31.067Z,968.58
2022-11-21T04:40:31.078Z,968.58
2022-11-21T04:41:31.041Z,968.60
2022-11-21T04:42:31.025Z,968.57
2022-11-21T04:43:31.010Z,968.54
2022-11-21T04:44:31.056Z,968.51
2022-11-21T04:45:30.987Z,968.57
2022-11-21T04:46:30.969Z,968.49
2022-11-21T04:47:30.959Z,968.52
2022-11-21T04:48:30.941Z,968.55
2022-11-21T04:49:30.929Z,968.53
2022-11-21T04:50:30.916Z,968.50
2022-11-21T04:51:30.897Z,968.49
2022-11-21T04:52:30.884Z,968.59
2022-11-21T04:53:30.872Z,968.49
2022-11-21T04:54:31.275Z,968.53
2022-11-21T04:55:30.848Z,968.47
2022-11-21T04:56:30.859Z,968.43
2022-11-21T04:57:30.828Z,968.37
2022-11-21T04:58:30.807Z,968.45
2022-11-21T04:59:30.798Z,968.37
2022-11-21T05:00:30.787Z,968.43
2022-11-21T05:01:30.792Z,968.42
2022-11-21T05:02:30.752Z,968.51
2022-11-21T05:03:30.738Z,968.43
2022-11-21T05:04:30.724Z,968.44
2022-11-21T05:05:30.707Z,968.43
2022-11-21T05:06:30.697Z,968.42
2022-11-21T05:07:30.757Z,968.38
2022-11-21T05:08:30.671Z,968.47
2022-11-21T05:09:30.656Z,968.49
2022-11-21T05:10:30.647Z,968.54
2022-11-21T05:11:30.635Z,968.44
2022-11-21T05:12:30.638Z,968.49
2022-11-21T05:13:30.604Z,968.47
2022-11-21T05:14:30.671Z,968.46
2022-11-21T05:15:30.581Z,968.48
2022-11-21T05:16:30.564Z,968.41
2022-11-21T05:17:30.549Z,968.45
2022-11-21T05:18:30.529Z,968.51
2022-11-21T05:19:30.522Z,968.49
2022-11-21T05:20:33.335Z,968.51
2022-11-21T05:21:31.509Z,968.55
2022-11-21T05:22:30.473Z,968.54
2022-11-21T05:23:30.464Z,968.65
2022-11-21T05:24:30.719Z,968.67
2022-11-21T05:25:30.437Z,968.64
2022-11-21T05:26:30.420Z,968.57
2022-11-21T05:27:30.416Z,968.57
2022-11-21T05:28:30.420Z,968.60
2022-11-21T05:29:30.386Z,968.69
2022-11-21T05:30:30.367Z,968.66
2022-11-21T05:31:30.351Z,968.65
2022-11-21T05:32:30.342Z,968.72
2022-11-21T05:33:30.330Z,968.70
2022-11-21T05:34:30.744Z,968.64
2022-11-21T05:35:30.302Z,968.57
2022-11-21T05:36:30.286Z,968.55
2022-11-21T05:37:30.271Z,968.67
2022-11-21T05:38:30.255Z,968.67
2022-11-21T05:39:30.238Z,968.66
2022-11-21T05:40:30.232Z,968.71
2022-11-21T05:41:30.218Z,968.65
2022-11-21T05:42:30.205Z,968.75
2022-11-21T05:43:30.190Z,968.69
2022-11-21T05:44:30.733Z,968.66
2022-11-21T05:45:30.159Z,968.62
2022-11-21T05:46:30.148Z,968.60
2022-11-21T05:47:30.140Z,968.52
2022-11-21T05:48:30.119Z,968.60
2022-11-21T05:49:30.105Z,968.64
2022-11-21T05:50:30.086Z,968.57
2022-11-21T05:51:30.077Z,968.66
2022-11-21T05:52:30.066Z,968.58
2022-11-21T05:53:30.053Z,968.64
2022-11-21T05:54:30.420Z,968.63
2022-11-21T05:55:30.025Z,968.59
2022-11-21T05:56:30.005Z,968.60
2022-11-21T05:57:29.996Z,968.71
2022-11-21T05:58:29.984Z,968.67
2022-11-21T05:59:29.966Z,968.68
2022-11-21T06:00:29.976Z,968.74
2022-11-21T06:01:29.946Z,968.68
2022-11-21T06:02:29.927Z,968.77
2022-11-21T06:03:29.917Z,968.76
2022-11-21T06:04:30.257Z,968.77
2022-11-21T06:05:29.885Z,968.74
2022-11-21T06:06:29.867Z,968.73
2022-11-21T06:07:29.887Z,968.71
2022-11-21T06:08:29.838Z,968.67
2022-11-21T06:09:29.826Z,968.70
2022-11-21T06:10:29.819Z,968.67
2022-11-21T06:11:29.802Z,968.69
2022-11-21T06:12:29.787Z,968.67
2022-11-21T06:13:29.778Z,968.72
2022-11-21T06:14:30.046Z,968.64
2022-11-21T06:15:29.746Z,968.72
2022-11-21T06:16:29.750Z,968.69
2022-11-21T06:17:29.719Z,968.71
2022-11-21T06:18:29.699Z,968.73
2022-11-21T06:19:29.694Z,968.78
2022-11-21T06:20:29.675Z,968.73
2022-11-21T06:21:29.660Z,968.70
2022-11-21T06:22:29.651Z,968.75
2022-11-21T06:23:29.640Z,968.74
2022-11-21T06:24:29.841Z,968.75
2022-11-21T06:25:29.613Z,968.69
2022-11-21T06:26:29.599Z,968.75
2022-11-21T06:27:29.582Z,968.72
2022-11-21T06:28:29.567Z,968.69
2022-11-21T06:29:29.557Z,968.76
2022-11-21T06:30:29.539Z,968.70
2022-11-21T06:31:29.547Z,968.73
2022-11-21T06:32:29.693Z,968.68
2022-11-21T06:33:29.503Z,968.76
2022-11-21T06:34:29.934Z,968.71
2022-11-21T06:35:29.466Z,968.68
2022-11-21T06:36:29.454Z,968.73
2022-11-21T06:37:29.442Z,968.74
2022-11-21T06:38:29.433Z,968.72
2022-11-21T06:39:29.422Z,968.74
2022-11-21T06:40:29.406Z,968.73
2022-11-21T06:41:29.390Z,968.81
2022-11-21T06:42:29.370Z,968.80
2022-11-21T06:43:29.360Z,968.77
2022-11-21T06:44:29.723Z,968.73
2022-11-21T06:45:29.335Z,968.72
2022-11-21T06:46:29.324Z,968.78
2022-11-21T06:47:29.313Z,968.73
2022-11-21T06:48:29.316Z,968.80
2022-11-21T06:49:29.291Z,968.81
2022-11-21T06:50:29.271Z,968.89
2022-11-21T06:51:29.253Z,968.83
2022-11-21T06:52:29.238Z,968.74
2022-11-21T06:53:29.225Z,968.80
2022-11-21T06:54:29.686Z,968.75
2022-11-21T06:55:29.199Z,968.80
2022-11-21T06:56:29.183Z,968.80
2022-11-21T06:57:29.169Z,968.79
2022-11-21T06:58:29.158Z,968.83
2022-11-21T06:59:29.144Z,968.85
2022-11-21T07:00:29.128Z,968.88
2022-11-21T07:01:29.251Z,968.90
2022-11-21T07:02:29.106Z,968.86
2022-11-21T07:03:29.094Z,968.81
2022-11-21T07:04:29.497Z,968.81
2022-11-21T07:05:29.068Z,968.82
2022-11-21T07:06:29.053Z,968.90
2022-11-21T07:07:29.122Z,968.86
2022-11-21T07:08:29.025Z,968.87
2022-11-21T07:09:33.996Z,968.91
2022-11-21T07:10:28.997Z,968.93
2022-11-21T07:11:28.984Z,968.93
2022-11-21T07:12:28.969Z,968.97
2022-11-21T07:13:28.951Z,968.86
2022-11-21T07:14:28.941Z,968.88
2022-11-21T07:15:28.934Z,968.79
2022-11-21T07:16:28.918Z,968.81
2022-11-21T07:17:28.904Z,968.84
2022-11-21T07:18:28.887Z,968.76
2022-11-21T07:19:29.218Z,968.81
2022-11-21T07:20:28.925Z,968.76
2022-11-21T07:21:28.847Z,968.77
2022-11-21T07:22:28.833Z,968.81
2022-11-21T07:23:28.825Z,968.82
2022-11-21T07:24:28.804Z,968.87
2022-11-21T07:25:33.825Z,968.82
2022-11-21T07:26:29.815Z,968.77
2022-11-21T07:27:28.789Z,968.76
2022-11-21T07:28:28.756Z,968.79
2022-11-21T07:29:29.286Z,968.81
2022-11-21T07:30:28.769Z,968.74
2022-11-21T07:31:28.719Z,968.80
2022-11-21T07:32:28.708Z,968.77
2022-11-21T07:33:28.686Z,968.71
2022-11-21T07:34:28.672Z,968.88
2022-11-21T07:35:28.659Z,968.88
2022-11-21T07:36:32.337Z,968.85
2022-11-21T07:37:28.635Z,968.81
2022-11-21T07:38:28.620Z,968.74
2022-11-21T07:39:29.003Z,968.67
2022-11-21T07:40:28.659Z,968.63
2022-11-21T07:41:28.577Z,968.66
2022-11-21T07:42:28.569Z,968.62
2022-11-21T07:43:28.553Z,968.57
2022-11-21T07:44:28.536Z,968.59
2022-11-21T07:45:28.527Z,968.55
2022-11-21T07:46:28.516Z,968.58
2022-11-21T07:47:28.500Z,968.62
2022-11-21T07:48:28.491Z,968.65
2022-11-21T07:49:28.802Z,968.71
2022-11-21T07:50:28.460Z,968.71
2022-11-21T07:51:28.445Z,968.69
2022-11-21T07:52:28.459Z,968.70
2022-11-21T07:53:28.416Z,968.66
2022-11-21T07:54:28.410Z,968.64
2022-11-21T07:55:28.387Z,968.65
2022-11-21T07:56:28.372Z,968.63
2022-11-21T07:57:28.359Z,968.62
2022-11-21T07:58:28.362Z,968.56
2022-11-21T07:59:28.584Z,968.52
2022-11-21T08:00:28.325Z,968.59
2022-11-21T08:01:28.380Z,968.50
2022-11-21T08:02:28.305Z,968.58
2022-11-21T08:03:28.282Z,968.54
2022-11-21T08:04:28.270Z,968.50
2022-11-21T08:05:28.260Z,968.50
2022-11-21T08:06:28.239Z,968.49
2022-11-21T08:07:28.280Z,968.46
2022-11-21T08:08:28.236Z,968.47
2022-11-21T08:09:28.315Z,968.51
2022-11-21T08:10:28.293Z,968.50
2022-11-21T08:11:28.170Z,968.56
2022-11-21T08:12:28.160Z,968.49
2022-11-21T08:13:28.140Z,968.59
2022-11-21T08:14:28.134Z,968.57
2022-11-21T08:15:28.117Z,968.57
2022-11-21T08:16:28.257Z,968.53
2022-11-21T08:17:28.109Z,968.54
2022-11-21T08:18:28.076Z,968.50
2022-11-21T08:19:28.278Z,968.45
2022-11-21T08:20:28.048Z,968.43
2022-11-21T08:21:28.036Z,968.44
2022-11-21T08:22:28.025Z,968.48
2022-11-21T08:23:28.013Z,968.42
2022-11-21T08:24:28.023Z,968.47
2022-11-21T08:25:27.986Z,968.47
2022-11-21T08:26:27.974Z,968.48
2022-11-21T08:27:27.962Z,968.39
2022-11-21T08:28:27.944Z,968.38
2022-11-21T08:29:28.365Z,968.33
2022-11-21T08:30:27.915Z,968.33
2022-11-21T08:31:27.898Z,968.40
2022-11-21T08:32:27.889Z,968.32
2022-11-21T08:33:27.876Z,968.37
2022-11-21T08:34:27.863Z,968.44
2022-11-21T08:35:27.846Z,968.38
2022-11-21T08:36:27.837Z,968.46
2022-11-21T08:37:27.817Z,968.42
2022-11-21T08:38:27.813Z,968.38
2022-11-21T08:39:28.132Z,968.46
2022-11-21T08:40:27.815Z,968.45
2022-11-21T08:41:27.766Z,968.44
2022-11-21T08:42:27.755Z,968.37
2022-11-21T08:43:27.738Z,968.38
2022-11-21T08:44:28.063Z,968.41
2022-11-21T08:45:27.715Z,968.33
2022-11-21T08:46:27.699Z,968.32
2022-11-21T08:47:27.682Z,968.30
2022-11-21T08:48:27.665Z,968.34
2022-11-21T08:49:27.653Z,968.32
2022-11-21T08:50:27.647Z,968.25
2022-11-21T08:51:27.636Z,968.35
2022-11-21T08:52:27.615Z,968.23
2022-11-21T08:53:27.600Z,968.31
2022-11-21T08:54:27.826Z,968.26
2022-11-21T08:55:27.573Z,968.30
2022-11-21T08:56:27.576Z,968.26
2022-11-21T08:57:27.540Z,968.22
2022-11-21T08:58:27.527Z,968.18
2022-11-21T08:59:27.513Z,968.12
2022-11-21T09:00:27.499Z,968.18
2022-11-21T09:01:27.550Z,968.21
2022-11-21T09:02:27.491Z,968.15
2022-11-21T09:03:30.822Z,968.10
2022-11-21T09:04:27.708Z,968.18
2022-11-21T09:05:27.451Z,968.09
2022-11-21T09:06:27.422Z,968.09
2022-11-21T09:07:27.534Z,967.98
2022-11-21T09:08:27.596Z,967.98
2022-11-21T09:09:27.385Z,968.10
2022-11-21T09:10:27.363Z,968.07
2022-11-21T09:11:27.349Z,968.02
2022-11-21T09:12:27.365Z,968.00
2022-11-21T09:13:27.328Z,968.02
2022-11-21T09:14:27.567Z,968.02
2022-11-21T09:15:27.294Z,968.09
2022-11-21T09:16:27.279Z,968.01
2022-11-21T09:17:27.270Z,968.07
2022-11-21T09:18:27.259Z,968.10
2022-11-21T09:19:27.498Z,968.11
2022-11-21T09:20:27.329Z,967.98
2022-11-21T09:21:27.216Z,968.07
2022-11-21T09:22:27.199Z,968.06
2022-11-21T09:23:27.188Z,968.13
2022-11-21T09:24:27.170Z,968.06
2022-11-21T09:25:27.157Z,968.06
2022-11-21T09:26:27.180Z,968.07
2022-11-21T09:27:27.136Z,968.08
2022-11-21T09:28:27.222Z,968.08
2022-11-21T09:29:27.508Z,968.08
2022-11-21T09:30:27.096Z,968.18
2022-11-21T09:31:27.078Z,968.21
2022-11-21T09:32:27.065Z,968.12
2022-11-21T09:33:27.064Z,968.07
2022-11-21T09:34:27.328Z,968.12
2022-11-21T09:35:27.023Z,968.08
2022-11-21T09:36:27.009Z,968.06
2022-11-21T09:37:26.993Z,968.08
2022-11-21T09:38:26.987Z,968.07
2022-11-21T09:39:27.394Z,968.00
2022-11-21T09:40:26.952Z,968.00
2022-11-21T09:41:26.936Z,968.00
2022-11-21T09:42:26.930Z,967.95
2022-11-21T09:43:26.922Z,967.95
2022-11-21T09:44:27.297Z,967.94
2022-11-21T09:45:26.888Z,967.82
2022-11-21T09:46:26.874Z,967.78
2022-11-21T09:47:26.857Z,967.81
2022-11-21T09:48:26.853Z,967.83
2022-11-21T09:49:27.303Z,967.79
2022-11-21T09:50:26.816Z,967.70
2022-11-21T09:51:27.003Z,967.75
2022-11-21T09:52:26.796Z,967.75
2022-11-21T09:53:26.778Z,967.72
2022-11-21T09:54:27.198Z,967.75
2022-11-21T09:55:26.753Z,967.70
2022-11-21T09:56:26.736Z,967.71
2022-11-21T09:57:29.550Z,967.74
2022-11-21T09:58:27.737Z,967.70
2022-11-21T09:59:26.694Z,967.61
2022-11-21T10:00:26.816Z,967.62
2022-11-21T10:01:26.767Z,967.58
2022-11-21T10:02:26.655Z,967.55
2022-11-21T10:03:26.645Z,967.44
2022-11-21T10:04:27.049Z,967.51
2022-11-21T10:05:26.616Z,967.45
2022-11-21T10:06:26.599Z,967.42
2022-11-21T10:07:26.657Z,967.43
2022-11-21T10:08:26.572Z,967.47
2022-11-21T10:09:26.557Z,967.45
2022-11-21T10:10:26.547Z,967.42
2022-11-21T10:11:26.531Z,967.40
2022-11-21T10:12:26.518Z,967.38
2022-11-21T10:13:26.509Z,967.41
2022-11-21T10:14:26.891Z,967.29
2022-11-21T10:15:26.479Z,967.31
2022-11-21T10:16:26.493Z,967.26
2022-11-21T10:17:26.452Z,967.20
2022-11-21T10:18:26.439Z,967.14
2022-11-21T10:19:26.432Z,967.20
2022-11-21T10:20:26.414Z,967.17
2022-11-21T10:21:26.407Z,967.15
2022-11-21T10:22:26.382Z,967.07
2022-11-21T10:23:26.369Z,967.10
2022-11-21T10:24:26.681Z,966.98
2022-11-21T10:25:27.476Z,966.88
2022-11-21T10:26:26.323Z,966.79
2022-11-21T10:27:26.316Z,966.81
2022-11-21T10:28:26.308Z,966.80
2022-11-21T10:29:26.295Z,966.81
2022-11-21T10:30:26.282Z,966.74
2022-11-21T10:31:26.270Z,966.74
2022-11-21T10:32:26.274Z,966.80
2022-11-21T10:33:26.234Z,966.84
2022-11-21T10:34:26.500Z,966.84
2022-11-21T10:35:26.266Z,966.83
2022-11-21T10:36:26.194Z,966.89
2022-11-21T10:37:26.197Z,966.79
2022-11-21T10:38:26.170Z,966.89
2022-11-21T10:39:26.148Z,966.82
2022-11-21T10:40:26.146Z,966.72
2022-11-21T10:41:26.128Z,966.76
2022-11-21T10:42:26.113Z,966.74
2022-11-21T10:43:26.094Z,966.88
2022-11-21T10:44:26.533Z,966.78
2022-11-21T10:45:26.070Z,966.85
2022-11-21T10:46:26.058Z,966.90
2022-11-21T10:47:26.043Z,966.84
2022-11-21T10:48:26.056Z,966.76
2022-11-21T10:49:26.015Z,966.75
2022-11-21T10:50:26.006Z,966.73
2022-11-21T10:51:25.987Z,966.59
2022-11-21T10:52:25.979Z,966.61
2022-11-21T10:53:25.963Z,966.57
2022-11-21T10:54:26.149Z,966.60
2022-11-21T10:55:25.932Z,966.53
2022-11-21T10:56:25.972Z,966.49
2022-11-21T10:57:25.906Z,966.40
2022-11-21T10:58:25.892Z,966.46
2022-11-21T10:59:30.450Z,966.22
2022-11-21T11:00:25.866Z,966.28
2022-11-21T11:01:25.982Z,966.23
2022-11-21T11:02:25.852Z,966.27
2022-11-21T11:03:25.824Z,966.20
2022-11-21T11:04:44.132Z,966.13
2022-11-21T11:05:26.831Z,966.16
2022-11-21T11:06:25.785Z,966.10
2022-11-21T11:07:25.853Z,966.10
2022-11-21T11:08:25.762Z,966.10
2022-11-21T11:09:25.753Z,965.98
2022-11-21T11:10:28.085Z,965.97
2022-11-21T11:11:25.713Z,966.01
2022-11-21T11:12:25.705Z,966.06
2022-11-21T11:14:25.885Z,966.07
2022-11-21T11:15:25.661Z,966.08
2022-11-21T11:16:25.643Z,966.12
2022-11-21T11:17:25.632Z,966.11
2022-11-21T11:18:25.625Z,966.16
2022-11-21T11:19:33.963Z,966.08
2022-11-21T11:20:26.642Z,966.06
2022-11-21T11:21:25.588Z,966.05
2022-11-21T11:22:25.572Z,966.09
2022-11-21T11:23:25.583Z,965.88
2022-11-21T11:24:25.542Z,965.94
2022-11-21T11:25:25.525Z,965.72
2022-11-21T11:26:25.511Z,965.66
2022-11-21T11:27:25.499Z,965.62
2022-11-21T11:28:25.482Z,965.55
2022-11-21T11:29:25.564Z,965.58
2022-11-21T11:30:25.467Z,965.50
2022-11-21T11:31:25.447Z,965.38
2022-11-21T11:32:25.457Z,965.41
2022-11-21T11:33:25.424Z,965.31
2022-11-21T11:34:25.406Z,965.32
2022-11-21T11:35:25.390Z,965.36
2022-11-21T11:36:25.395Z,965.29
2022-11-21T11:37:25.408Z,965.17
2022-11-21T11:38:25.343Z,965.18
2022-11-21T11:39:25.560Z,965.11
2022-11-21T11:40:25.319Z,965.07
2022-11-21T11:41:25.305Z,965.02
2022-11-21T11:42:25.301Z,965.06
2022-11-21T11:43:25.282Z,964.98
2022-11-21T11:44:25.461Z,965.03
2022-11-21T11:45:25.253Z,965.00
2022-11-21T11:46:25.240Z,964.91
2022-11-21T11:47:25.229Z,965.00
2022-11-21T11:48:25.216Z,964.87
2022-11-21T11:49:25.199Z,964.81
2022-11-21T11:50:25.190Z,964.90
2022-11-21T11:51:25.171Z,964.86
2022-11-21T11:52:25.174Z,964.69
2022-11-21T11:53:25.143Z,964.80
2022-11-21T11:54:25.128Z,964.86
2022-11-21T11:55:25.116Z,964.91
2022-11-21T11:56:25.101Z,964.93
2022-11-21T11:57:25.088Z,964.91
2022-11-21T11:58:25.077Z,964.87
2022-11-21T11:59:25.214Z,964.83
2022-11-21T12:00:25.055Z,964.81
2022-11-21T12:01:25.038Z,964.80
2022-11-21T12:02:25.104Z,964.78
2022-11-21T12:03:25.007Z,964.81
2022-11-21T12:04:24.994Z,964.77
2022-11-21T12:05:24.982Z,964.80
2022-11-21T12:06:38.250Z,964.76
2022-11-21T12:08:42.303Z,964.60
2022-11-21T12:09:26.209Z,964.72
2022-11-21T12:10:24.915Z,964.70
2022-11-21T12:11:25.368Z,964.64
2022-11-21T12:12:24.886Z,964.58
2022-11-21T12:13:24.876Z,964.58
2022-11-21T12:14:24.856Z,964.62
2022-11-21T12:15:24.845Z,964.57
2022-11-21T12:16:24.828Z,964.58
2022-11-21T12:17:24.818Z,964.57
2022-11-21T12:18:24.801Z,964.53
2022-11-21T12:19:24.795Z,964.48
2022-11-21T12:20:24.776Z,964.36
2022-11-21T12:21:24.763Z,964.39
2022-11-21T12:22:24.751Z,964.37
2022-11-21T12:23:24.740Z,964.38
2022-11-21T12:24:24.750Z,964.28
2022-11-21T12:25:24.717Z,964.35
2022-11-21T12:26:24.695Z,964.29
2022-11-21T12:27:24.686Z,964.26
2022-11-21T12:28:24.670Z,964.25
2022-11-21T12:29:24.663Z,964.27
2022-11-21T12:30:24.639Z,964.17